createdAt,value
2022-08-28T00:00:25.758Z,12.47
2022-08-28T00:02:53.755Z,19.20
2022-08-28T00:05:23.989Z,13.03
2022-08-28T00:07:50.649Z,11.37
2022-08-28T00:10:19.693Z,14.80
2022-08-28T00:12:49.428Z,18.67
2022-08-28T00:15:22.619Z,12.50
2022-08-28T00:17:49.297Z,16.00
2022-08-28T00:20:18.688Z,17.07
2022-08-28T00:22:45.843Z,14.57
2022-08-28T00:25:14.462Z,16.73
2022-08-28T00:27:55.129Z,13.53
2022-08-28T00:30:39.252Z,12.13
2022-08-28T00:33:27.743Z,16.00
2022-08-28T00:35:55.034Z,13.37
2022-08-28T00:38:25.739Z,14.90
2022-08-28T00:40:54.178Z,13.33
2022-08-28T00:43:37.192Z,11.30
2022-08-28T00:46:09.799Z,18.57
2022-08-28T00:48:38.115Z,16.43
2022-08-28T00:51:24.727Z,14.30
2022-08-28T00:53:58.429Z,14.00
2022-08-28T00:56:27.022Z,12.57
2022-08-28T00:58:57.532Z,14.33
2022-08-28T01:01:24.737Z,18.97
2022-08-28T01:03:51.341Z,13.40
2022-08-28T01:06:20.970Z,12.03
2022-08-28T01:08:49.845Z,15.57
2022-08-28T01:11:19.533Z,18.13
2022-08-28T01:13:48.442Z,14.70
2022-08-28T01:16:17.999Z,12.33
2022-08-28T01:18:46.101Z,15.13
2022-08-28T01:21:44.179Z,15.23
2022-08-28T01:24:14.926Z,13.57
2022-08-28T01:26:42.355Z,13.10
2022-08-28T01:29:09.901Z,15.50
2022-08-28T01:31:38.423Z,15.67
2022-08-28T01:34:08.295Z,14.37
2022-08-28T01:36:35.029Z,15.90
2022-08-28T01:39:11.630Z,12.97
2022-08-28T01:41:43.485Z,18.00
2022-08-28T01:44:10.014Z,16.77
2022-08-28T01:46:38.191Z,11.87
2022-08-28T01:49:06.370Z,12.23
2022-08-28T01:51:35.079Z,13.10
2022-08-28T01:54:04.831Z,14.43
2022-08-28T01:56:31.360Z,13.27
2022-08-28T01:58:58.233Z,12.43
2022-08-28T02:01:25.109Z,15.23
2022-08-28T02:03:53.004Z,12.37
2022-08-28T02:06:20.916Z,14.37
2022-08-28T02:08:49.818Z,17.30
2022-08-28T02:11:17.038Z,13.70
2022-08-28T02:13:43.684Z,15.27
2022-08-28T02:16:11.258Z,19.47
2022-08-28T02:18:39.391Z,15.90
2022-08-28T02:21:08.342Z,13.50
2022-08-28T02:23:38.332Z,16.33
2022-08-28T02:26:04.979Z,12.87
2022-08-28T02:28:31.482Z,18.20
2022-08-28T02:30:58.060Z,13.93
2022-08-28T02:33:25.118Z,16.83
2022-08-28T02:35:52.013Z,12.47
2022-08-28T02:38:18.963Z,16.80
2022-08-28T02:40:45.503Z,13.57
2022-08-28T02:43:14.774Z,21.40
2022-08-28T02:45:41.448Z,11.70
2022-08-28T02:48:11.921Z,13.73
2022-08-28T02:50:44.070Z,10.77
2022-08-28T02:53:11.629Z,13.00
2022-08-28T02:55:38.316Z,9.37
2022-08-28T02:58:07.194Z,10.90
2022-08-28T03:00:33.793Z,11.17
2022-08-28T03:03:00.278Z,13.90
2022-08-28T03:05:26.881Z,19.70
2022-08-28T03:07:53.659Z,15.90
2022-08-28T03:10:22.583Z,12.30
2022-08-28T03:12:49.345Z,16.33
2022-08-28T03:15:17.987Z,13.40
2022-08-28T03:17:44.659Z,14.53
2022-08-28T03:20:13.308Z,12.47
2022-08-28T03:22:59.204Z,14.47
2022-08-28T03:25:26.297Z,12.73
2022-08-28T03:27:52.937Z,15.17
2022-08-28T03:30:22.743Z,15.20
2022-08-28T03:32:49.510Z,12.27
2022-08-28T03:35:17.187Z,10.90
2022-08-28T03:37:44.170Z,13.67
2022-08-28T03:40:14.543Z,12.77
2022-08-28T03:42:41.270Z,10.13
2022-08-28T03:45:10.982Z,12.03
2022-08-28T03:47:39.331Z,11.23
2022-08-28T03:50:11.738Z,11.63
2022-08-28T03:53:04.242Z,10.33
2022-08-28T03:55:30.802Z,12.53
2022-08-28T03:57:57.279Z,10.57
2022-08-28T04:00:27.487Z,9.87
2022-08-28T04:02:54.115Z,11.73
2022-08-28T04:05:21.120Z,17.67
2022-08-28T04:07:48.192Z,11.93
2022-08-28T04:10:14.755Z,11.83
2022-08-28T04:12:41.267Z,12.87
2022-08-28T04:15:15.071Z,12.83
2022-08-28T04:17:42.687Z,10.50
2022-08-28T04:20:11.142Z,12.67
2022-08-28T04:22:38.394Z,14.37
2022-08-28T04:25:08.360Z,14.77
2022-08-28T04:27:36.556Z,13.73
2022-08-28T04:30:11.362Z,17.37
2022-08-28T04:32:39.812Z,14.83
2022-08-28T04:35:13.105Z,13.80
2022-08-28T04:37:40.082Z,11.57
2022-08-28T04:40:11.334Z,12.47
2022-08-28T04:42:40.067Z,14.60
2022-08-28T04:45:15.645Z,13.63
2022-08-28T04:47:43.665Z,12.17
2022-08-28T04:50:11.736Z,16.00
2022-08-28T04:52:38.564Z,16.37
2022-08-28T04:55:06.496Z,9.43
2022-08-28T04:57:36.419Z,13.03
2022-08-28T05:00:07.645Z,15.10
2022-08-28T05:02:34.188Z,15.63
2022-08-28T05:05:00.717Z,15.20
2022-08-28T05:07:27.175Z,10.10
2022-08-28T05:09:54.597Z,15.03
2022-08-28T05:12:22.841Z,14.77
2022-08-28T05:14:49.753Z,10.93
2022-08-28T05:17:16.236Z,12.20
2022-08-28T05:19:43.726Z,13.13
2022-08-28T05:22:11.094Z,10.47
2022-08-28T05:24:40.115Z,10.83
2022-08-28T05:27:09.399Z,11.47
2022-08-28T05:29:36.571Z,9.10
2022-08-28T05:32:04.470Z,13.87
2022-08-28T05:34:31.643Z,11.70
2022-08-28T05:36:58.230Z,15.87
2022-08-28T05:39:25.190Z,11.30
2022-08-28T05:41:51.855Z,14.03
2022-08-28T05:44:19.584Z,11.40
2022-08-28T05:46:48.188Z,9.40
2022-08-28T05:49:15.895Z,16.53
2022-08-28T05:51:42.768Z,15.27
2022-08-28T05:54:10.384Z,12.43
2022-08-28T05:56:40.151Z,13.20
2022-08-28T05:59:08.517Z,11.67
2022-08-28T06:01:41.254Z,14.63
2022-08-28T06:04:14.697Z,11.83
2022-08-28T06:06:42.665Z,13.37
2022-08-28T06:09:12.961Z,14.90
2022-08-28T06:11:44.016Z,12.97
2022-08-28T06:14:16.237Z,13.83
2022-08-28T06:16:47.618Z,12.50
2022-08-28T06:19:16.836Z,11.00
2022-08-28T06:21:44.194Z,11.37
2022-08-28T06:24:12.005Z,11.30
2022-08-28T06:26:39.536Z,11.27
2022-08-28T06:29:09.513Z,12.37
2022-08-28T06:31:37.835Z,12.57
2022-08-28T06:34:06.638Z,11.37
2022-08-28T06:36:35.450Z,13.20
2022-08-28T06:39:05.070Z,9.60
2022-08-28T06:41:33.781Z,12.27
2022-08-28T06:44:00.524Z,9.77
2022-08-28T06:46:28.122Z,9.47
2022-08-28T06:48:54.583Z,13.23
2022-08-28T06:51:23.214Z,14.90
2022-08-28T06:53:52.213Z,18.77
2022-08-28T06:56:27.882Z,10.97
2022-08-28T06:58:56.771Z,13.43
2022-08-28T07:01:29.113Z,10.80
2022-08-28T07:03:59.551Z,13.13
2022-08-28T07:06:27.342Z,12.97
2022-08-28T07:08:53.874Z,12.23
2022-08-28T07:11:28.963Z,11.80
2022-08-28T07:13:56.491Z,11.87
2022-08-28T07:16:27.571Z,10.20
2022-08-28T07:18:54.698Z,11.17
2022-08-28T07:21:22.812Z,9.13
2022-08-28T07:23:49.779Z,12.90
2022-08-28T07:26:19.458Z,10.13
2022-08-28T07:28:46.722Z,16.10
2022-08-28T07:31:17.000Z,10.50
2022-08-28T07:33:44.380Z,11.97
2022-08-28T07:36:16.020Z,9.90
2022-08-28T07:38:57.922Z,8.23
2022-08-28T07:41:27.838Z,11.13
2022-08-28T07:44:13.784Z,12.93
2022-08-28T07:46:41.245Z,11.30
2022-08-28T07:49:17.119Z,11.63
2022-08-28T07:51:45.730Z,7.60
2022-08-28T07:54:17.732Z,11.60
2022-08-28T07:56:45.558Z,8.97
2022-08-28T07:59:15.691Z,10.37
2022-08-28T08:01:46.794Z,12.20
2022-08-28T08:04:15.867Z,9.00
2022-08-28T08:06:43.798Z,9.03
2022-08-28T08:09:16.016Z,10.90
2022-08-28T08:11:42.919Z,10.07
2022-08-28T08:14:11.489Z,9.60
2022-08-28T08:16:45.417Z,10.17
2022-08-28T08:19:15.447Z,13.73
2022-08-28T08:21:48.428Z,11.20
2022-08-28T08:24:21.498Z,10.57
2022-08-28T08:26:50.837Z,9.33
2022-08-28T08:29:31.750Z,12.77
2022-08-28T08:32:06.099Z,7.73
2022-08-28T08:34:42.952Z,8.70
2022-08-28T08:37:11.671Z,10.57
2022-08-28T08:39:41.623Z,10.47
2022-08-28T08:42:21.382Z,13.23
2022-08-28T08:44:50.514Z,11.47
2022-08-28T08:47:22.883Z,11.20
2022-08-28T08:49:54.657Z,9.87
2022-08-28T08:52:38.678Z,10.73
2022-08-28T08:55:07.874Z,8.57
2022-08-28T08:57:39.001Z,9.83
2022-08-28T09:00:15.596Z,7.33
2022-08-28T09:02:50.363Z,10.23
2022-08-28T09:05:22.994Z,9.60
2022-08-28T09:08:02.545Z,9.37
2022-08-28T09:10:38.735Z,7.70
2022-08-28T09:13:12.006Z,8.87
2022-08-28T09:15:47.542Z,8.10
2022-08-28T09:18:34.071Z,6.77
2022-08-28T09:21:00.650Z,8.60
2022-08-28T09:23:29.842Z,10.20
2022-08-28T09:26:02.626Z,11.50
2022-08-28T09:28:37.993Z,8.50
2022-08-28T09:31:14.195Z,7.30
2022-08-28T09:33:41.891Z,11.87
2022-08-28T09:36:27.668Z,6.93
2022-08-28T09:39:18.247Z,7.93
2022-08-28T09:42:22.788Z,9.03
2022-08-28T09:44:53.565Z,7.90
2022-08-28T09:47:46.029Z,9.47
2022-08-28T09:50:28.486Z,11.57
2022-08-28T09:53:14.079Z,8.73
2022-08-28T09:56:17.739Z,8.73
2022-08-28T09:58:54.623Z,9.33
2022-08-28T10:01:45.186Z,8.70
2022-08-28T10:04:20.204Z,9.53
2022-08-28T10:07:14.517Z,10.40
2022-08-28T10:10:09.744Z,9.53
2022-08-28T10:12:42.587Z,7.40
2022-08-28T10:15:43.432Z,6.67
2022-08-28T10:18:10.390Z,8.03
2022-08-28T10:20:53.865Z,9.67
2022-08-28T10:23:41.501Z,9.07
2022-08-28T10:26:14.173Z,7.83
2022-08-28T10:29:00.150Z,8.23
2022-08-28T10:31:51.369Z,6.47
2022-08-28T10:34:51.795Z,8.43
2022-08-28T10:37:31.636Z,9.20
2022-08-28T10:40:02.473Z,6.87
2022-08-28T10:42:50.770Z,7.70
2022-08-28T10:45:23.011Z,7.10
2022-08-28T10:47:55.477Z,7.40
2022-08-28T10:50:28.780Z,7.87
2022-08-28T10:53:06.840Z,7.63
2022-08-28T10:55:43.385Z,8.17
2022-08-28T10:58:24.399Z,9.57
2022-08-28T11:01:01.226Z,13.27
2022-08-28T11:03:35.568Z,8.90
2022-08-28T11:06:41.223Z,10.70
2022-08-28T11:09:25.122Z,7.40
2022-08-28T11:12:01.080Z,5.63
2022-08-28T11:14:48.310Z,5.87
2022-08-28T11:17:25.283Z,8.33
2022-08-28T11:20:25.046Z,8.93
2022-08-28T11:23:12.889Z,6.53
2022-08-28T11:25:42.318Z,7.57
2022-08-28T11:28:17.539Z,9.60
2022-08-28T11:30:47.251Z,8.10
2022-08-28T11:33:35.791Z,4.20
2022-08-28T11:36:04.331Z,8.30
2022-08-28T11:38:43.336Z,6.27
2022-08-28T11:41:22.409Z,6.13
2022-08-28T11:43:52.554Z,6.07
2022-08-28T11:46:32.889Z,7.87
2022-08-28T11:49:02.561Z,6.23
2022-08-28T11:51:38.139Z,6.93
2022-08-28T11:54:46.738Z,6.30
2022-08-28T11:57:35.222Z,4.63
2022-08-28T12:00:10.329Z,5.27
2022-08-28T12:02:40.147Z,5.87
2022-08-28T12:05:32.570Z,6.80
2022-08-28T12:08:02.302Z,6.03
2022-08-28T12:10:30.506Z,5.43
2022-08-28T12:13:38.826Z,8.07
2022-08-28T12:16:08.170Z,10.77
2022-08-28T12:18:42.816Z,8.27
2022-08-28T12:21:17.813Z,6.00
2022-08-28T12:24:22.522Z,5.90
2022-08-28T12:26:57.025Z,4.47
2022-08-28T12:29:38.184Z,6.93
2022-08-28T12:32:32.327Z,7.47
2022-08-28T12:34:58.814Z,5.27
2022-08-28T12:37:52.298Z,5.53
2022-08-28T12:40:38.303Z,5.87
2022-08-28T12:43:08.976Z,4.40
2022-08-28T12:45:57.963Z,5.27
2022-08-28T12:48:50.217Z,6.33
2022-08-28T12:51:24.244Z,8.77
2022-08-28T12:53:55.150Z,5.67
2022-08-28T12:56:25.420Z,6.70
2022-08-28T12:58:52.322Z,7.40
2022-08-28T13:01:32.201Z,9.17
2022-08-28T13:04:04.323Z,9.13
2022-08-28T13:06:34.934Z,4.67
2022-08-28T13:09:05.381Z,7.00
2022-08-28T13:11:39.040Z,6.53
2022-08-28T13:14:08.147Z,6.30
2022-08-28T13:16:36.635Z,6.00
2022-08-28T13:19:04.068Z,5.67
2022-08-28T13:21:38.189Z,6.10
2022-08-28T13:24:28.834Z,5.87
2022-08-28T13:27:14.283Z,5.40
2022-08-28T13:30:13.297Z,7.63
2022-08-28T13:32:54.788Z,7.83
2022-08-28T13:35:29.333Z,7.67
2022-08-28T13:38:03.620Z,6.77
2022-08-28T13:41:00.826Z,5.40
2022-08-28T13:43:45.932Z,8.80
2022-08-28T13:46:15.837Z,4.83
2022-08-28T13:48:42.340Z,6.73
2022-08-28T13:51:17.645Z,5.37
2022-08-28T13:53:49.707Z,9.17
2022-08-28T13:56:16.578Z,5.70
2022-08-28T13:58:44.629Z,7.03
2022-08-28T14:01:19.647Z,7.83
2022-08-28T14:03:50.851Z,6.80
2022-08-28T14:06:18.459Z,8.03
2022-08-28T14:08:46.285Z,7.77
2022-08-28T14:11:15.691Z,8.83
2022-08-28T14:13:46.925Z,5.30
2022-08-28T14:16:25.247Z,7.70
2022-08-28T14:18:52.850Z,5.80
2022-08-28T14:21:19.736Z,5.73
2022-08-28T14:23:46.559Z,7.97
2022-08-28T14:26:21.709Z,7.90
2022-08-28T14:28:48.492Z,6.80
2022-08-28T14:31:15.090Z,6.57
2022-08-28T14:33:45.061Z,6.17
2022-08-28T14:36:23.195Z,6.07
2022-08-28T14:38:54.021Z,6.10
2022-08-28T14:41:26.629Z,6.17
2022-08-28T14:43:55.159Z,7.63
2022-08-28T14:46:28.542Z,5.93
2022-08-28T14:49:03.617Z,6.83
2022-08-28T14:51:32.053Z,6.83
2022-08-28T14:54:00.188Z,5.17
2022-08-28T14:56:29.006Z,5.77
2022-08-28T14:58:59.850Z,5.57
2022-08-28T15:01:40.404Z,6.27
2022-08-28T15:04:11.123Z,6.67
2022-08-28T15:06:41.760Z,5.63
2022-08-28T15:09:11.106Z,6.37
2022-08-28T15:11:39.275Z,4.67
2022-08-28T15:14:07.356Z,4.33
2022-08-28T15:16:59.919Z,5.30
2022-08-28T15:19:29.912Z,4.90
2022-08-28T15:21:58.362Z,6.77
2022-08-28T15:24:30.801Z,7.50
2022-08-28T15:26:59.513Z,8.20
2022-08-28T15:29:28.365Z,6.47
2022-08-28T15:31:55.375Z,6.30
2022-08-28T15:34:28.284Z,6.60
2022-08-28T15:36:56.200Z,6.23
2022-08-28T15:39:43.441Z,8.73
2022-08-28T15:42:11.756Z,5.90
2022-08-28T15:44:40.156Z,6.60
2022-08-28T15:47:08.127Z,6.43
2022-08-28T15:49:43.572Z,8.60
2022-08-28T15:52:15.633Z,5.83
2022-08-28T15:54:42.698Z,5.03
2022-08-28T15:57:10.442Z,8.50
2022-08-28T15:59:49.395Z,6.80
2022-08-28T16:02:26.219Z,6.20
2022-08-28T16:04:54.018Z,6.83
2022-08-28T16:07:23.028Z,5.17
2022-08-28T16:09:49.724Z,5.57
2022-08-28T16:12:16.392Z,5.23
2022-08-28T16:14:43.558Z,6.03
2022-08-28T16:17:11.579Z,7.73
2022-08-28T16:19:40.351Z,6.53
2022-08-28T16:22:09.649Z,5.60
2022-08-28T16:24:36.107Z,5.33
2022-08-28T16:27:04.491Z,7.67
2022-08-28T16:29:33.795Z,7.30
2022-08-28T16:32:00.522Z,6.70
2022-08-28T16:34:31.345Z,8.20
2022-08-28T16:36:59.223Z,8.00
2022-08-28T16:39:26.296Z,9.00
2022-08-28T16:41:52.812Z,8.73
2022-08-28T16:44:21.747Z,6.37
2022-08-28T16:46:49.013Z,5.97
2022-08-28T16:49:15.796Z,6.87
2022-08-28T16:51:42.301Z,6.67
2022-08-28T16:54:09.340Z,8.30
2022-08-28T16:56:36.202Z,5.63
2022-08-28T16:59:04.225Z,7.07
2022-08-28T17:01:42.891Z,7.13
2022-08-28T17:04:10.933Z,7.07
2022-08-28T17:06:39.359Z,5.90
2022-08-28T17:09:07.490Z,6.07
2022-08-28T17:11:34.313Z,8.10
2022-08-28T17:14:00.883Z,8.07
2022-08-28T17:16:29.725Z,7.87
2022-08-28T17:18:56.272Z,7.80
2022-08-28T17:21:42.235Z,5.30
2022-08-28T17:24:12.458Z,7.30
2022-08-28T17:26:45.587Z,6.47
2022-08-28T17:29:12.389Z,9.80
2022-08-28T17:31:39.372Z,9.13
2022-08-28T17:38:25.733Z,9.60
2022-08-28T17:40:53.333Z,10.67
2022-08-28T17:43:27.849Z,8.30
2022-08-28T17:45:54.302Z,6.10
2022-08-28T17:48:21.290Z,8.60
2022-08-28T17:50:47.852Z,11.20
2022-08-28T17:53:19.003Z,8.63
2022-08-28T17:55:46.695Z,9.60
2022-08-28T17:58:14.721Z,8.80
2022-08-28T18:00:43.183Z,7.10
2022-08-28T18:03:10.686Z,6.77
2022-08-28T18:05:38.291Z,10.37
2022-08-28T18:08:06.383Z,7.40
2022-08-28T18:10:33.499Z,7.57
2022-08-28T18:13:01.135Z,11.73
2022-08-28T18:15:28.944Z,6.10
2022-08-28T18:17:56.024Z,9.97
2022-08-28T18:20:22.717Z,7.37
2022-08-28T18:22:49.679Z,8.20
2022-08-28T18:25:35.272Z,7.80
2022-08-28T18:28:03.303Z,9.73
2022-08-28T18:30:29.922Z,9.93
2022-08-28T18:32:58.487Z,8.67
2022-08-28T18:36:15.568Z,12.20
2022-08-28T18:40:28.059Z,6.77
2022-08-28T18:42:54.786Z,11.17
2022-08-28T18:45:21.259Z,9.30
2022-08-28T18:47:48.409Z,8.37
2022-08-28T18:50:14.842Z,9.20
2022-08-28T18:52:41.936Z,8.10
2022-08-28T18:55:10.712Z,9.57
2022-08-28T18:57:37.246Z,8.47
2022-08-28T19:00:05.555Z,12.47
2022-08-28T19:02:32.326Z,7.73
2022-08-28T19:04:59.042Z,9.30
2022-08-28T19:07:25.554Z,10.67
2022-08-28T19:09:55.389Z,10.03
2022-08-28T19:12:22.030Z,10.73
2022-08-28T19:14:48.485Z,8.63
2022-08-28T19:17:19.150Z,9.03
2022-08-28T19:19:48.166Z,9.60
2022-08-28T19:22:15.723Z,10.03
2022-08-28T19:24:42.873Z,8.10
2022-08-28T19:27:10.609Z,13.70
2022-08-28T19:29:37.896Z,11.73
2022-08-28T19:32:05.599Z,10.63
2022-08-28T19:34:32.956Z,13.90
2022-08-28T19:37:00.602Z,12.60
2022-08-28T19:39:29.518Z,10.17
2022-08-28T19:41:56.180Z,10.07
2022-08-28T19:44:22.709Z,8.30
2022-08-28T19:47:16.236Z,13.43
2022-08-28T19:49:43.019Z,8.23
2022-08-28T19:52:09.554Z,10.23
2022-08-28T19:54:38.337Z,7.83
2022-08-28T19:57:05.565Z,10.07
2022-08-28T19:59:32.707Z,10.97
2022-08-28T20:01:59.350Z,8.60
2022-08-28T20:11:49.425Z,9.70
2022-08-28T20:14:18.061Z,7.60
2022-08-28T20:16:48.278Z,9.10
2022-08-28T20:19:15.653Z,10.27
2022-08-28T20:21:46.977Z,7.63
2022-08-28T20:24:17.569Z,9.17
2022-08-28T20:26:44.630Z,7.27
2022-08-28T20:29:12.433Z,8.00
2022-08-28T20:31:41.476Z,9.73
2022-08-28T20:34:10.382Z,9.70
2022-08-28T20:36:37.060Z,9.83
2022-08-28T20:39:07.087Z,9.97
2022-08-28T20:41:34.265Z,10.90
2022-08-28T20:44:04.819Z,9.37
2022-08-28T20:46:35.938Z,7.80
2022-08-28T20:49:05.814Z,6.93
2022-08-28T20:51:50.911Z,8.87
2022-08-28T20:54:20.836Z,11.23
2022-08-28T20:56:48.932Z,9.87
2022-08-28T20:59:15.790Z,9.40
2022-08-28T21:01:42.446Z,9.03
2022-08-28T21:04:09.241Z,8.90
2022-08-28T21:06:35.824Z,7.93
2022-08-28T21:09:02.440Z,6.40
2022-08-28T21:11:29.422Z,7.20
2022-08-28T21:13:55.992Z,8.70
2022-08-28T21:16:22.515Z,10.00
2022-08-28T21:19:05.358Z,8.97
2022-08-28T21:21:37.156Z,9.03
2022-08-28T21:24:06.521Z,8.07
2022-08-28T21:26:33.498Z,7.53
2022-08-28T21:29:00.780Z,10.80
2022-08-28T21:31:27.437Z,9.33
2022-08-28T21:33:53.935Z,8.33
2022-08-28T21:36:20.453Z,7.17
2022-08-28T21:38:47.320Z,7.57
2022-08-28T21:41:15.104Z,11.40
2022-08-28T21:43:44.064Z,9.43
2022-08-28T21:46:13.978Z,8.47
2022-08-28T21:48:42.177Z,7.93
2022-08-28T21:51:13.411Z,7.43
2022-08-28T21:53:40.882Z,9.83
2022-08-28T21:56:08.072Z,8.43
2022-08-28T21:58:36.275Z,8.77
2022-08-28T22:01:03.029Z,8.63
2022-08-28T22:03:29.649Z,10.73
2022-08-28T22:05:59.486Z,9.17
2022-08-28T22:08:28.558Z,8.93
2022-08-28T22:10:55.973Z,6.53
2022-08-28T22:13:22.901Z,8.77
2022-08-28T22:15:49.438Z,10.53
2022-08-28T22:18:16.442Z,8.80
2022-08-28T22:21:03.623Z,8.23
2022-08-28T22:23:34.961Z,9.03
2022-08-28T22:26:04.391Z,6.93
2022-08-28T22:28:31.410Z,7.87
2022-08-28T22:30:58.335Z,10.93
2022-08-28T22:33:26.237Z,8.73
2022-08-28T22:35:52.869Z,11.23
2022-08-28T22:38:20.461Z,9.60
2022-08-28T22:40:47.603Z,10.67
2022-08-28T22:43:14.981Z,12.07
2022-08-28T22:45:43.458Z,6.37
2022-08-28T22:48:11.052Z,5.93
2022-08-28T22:50:38.054Z,7.50
2022-08-28T22:53:04.715Z,9.53
2022-08-28T22:55:31.405Z,8.50
2022-08-28T22:57:57.854Z,10.00
2022-08-28T23:00:26.571Z,11.53
2022-08-28T23:02:55.198Z,9.77
2022-08-28T23:05:23.265Z,11.70
2022-08-28T23:07:49.819Z,12.07
2022-08-28T23:10:16.997Z,11.00
2022-08-28T23:12:43.555Z,9.93
2022-08-28T23:15:16.044Z,12.23
2022-08-28T23:17:43.303Z,8.57
2022-08-28T23:20:14.166Z,6.97
2022-08-28T23:22:41.042Z,8.53
2022-08-28T23:25:08.086Z,9.23
2022-08-28T23:27:36.654Z,8.67
2022-08-28T23:30:05.874Z,7.87
2022-08-28T23:32:34.072Z,7.87
2022-08-28T23:35:00.697Z,7.33
2022-08-28T23:37:27.942Z,9.47
2022-08-28T23:39:54.694Z,9.57
2022-08-28T23:42:21.253Z,10.43
2022-08-28T23:44:48.166Z,9.83
2022-08-28T23:47:14.749Z,11.17
2022-08-28T23:49:42.787Z,8.40
2022-08-28T23:52:09.797Z,14.17
2022-08-28T23:54:36.771Z,10.10
2022-08-28T23:57:03.955Z,8.67
2022-08-28T23:59:32.604Z,7.40
